sensor_id;sensor_type;location;lat;lon;timestamp;P1;durP1;ratioP1;P2;durP2;ratioP2
61978;SDS011;47938;48.176;16.414;2023-02-01T00:01:34;2.42;;;1.40;;
61978;SDS011;47938;48.176;16.414;2023-02-01T00:04:00;2.85;;;1.33;;
61978;SDS011;47938;48.176;16.414;2023-02-01T00:06:25;2.60;;;1.42;;
61978;SDS011;47938;48.176;16.414;2023-02-01T00:08:54;3.17;;;1.77;;
61978;SDS011;47938;48.176;16.414;2023-02-01T00:11:20;5.60;;;2.00;;
61978;SDS011;47938;48.176;16.414;2023-02-01T00:13:47;2.40;;;1.48;;
61978;SDS011;47938;48.176;16.414;2023-02-01T00:16:14;6.45;;;1.65;;
61978;SDS011;47938;48.176;16.414;2023-02-01T00:18:40;2.92;;;1.45;;
61978;SDS011;47938;48.176;16.414;2023-02-01T00:21:06;2.45;;;1.60;;
61978;SDS011;47938;48.176;16.414;2023-02-01T00:23:35;2.92;;;1.60;;
61978;SDS011;47938;48.176;16.414;2023-02-01T00:26:02;2.65;;;1.60;;
61978;SDS011;47938;48.176;16.414;2023-02-01T00:28:29;2.33;;;1.42;;
61978;SDS011;47938;48.176;16.414;2023-02-01T00:30:58;4.55;;;1.35;;
61978;SDS011;47938;48.176;16.414;2023-02-01T00:33:24;2.30;;;1.58;;
61978;SDS011;47938;48.176;16.414;2023-02-01T00:35:50;1.55;;;1.05;;
61978;SDS011;47938;48.176;16.414;2023-02-01T00:38:16;3.28;;;1.75;;
61978;SDS011;47938;48.176;16.414;2023-02-01T00:40:41;4.65;;;1.80;;
61978;SDS011;47938;48.176;16.414;2023-02-01T00:43:07;3.25;;;1.27;;
61978;SDS011;47938;48.176;16.414;2023-02-01T00:45:33;11.32;;;2.10;;
61978;SDS011;47938;48.176;16.414;2023-02-01T00:47:58;6.00;;;1.77;;
61978;SDS011;47938;48.176;16.414;2023-02-01T00:50:24;5.75;;;1.52;;
61978;SDS011;47938;48.176;16.414;2023-02-01T00:52:49;2.95;;;1.95;;
61978;SDS011;47938;48.176;16.414;2023-02-01T00:55:15;3.42;;;1.90;;
61978;SDS011;47938;48.176;16.414;2023-02-01T00:57:41;3.00;;;1.90;;
61978;SDS011;47938;48.176;16.414;2023-02-01T01:00:06;2.95;;;1.55;;
61978;SDS011;47938;48.176;16.414;2023-02-01T01:02:33;3.40;;;2.03;;
61978;SDS011;47938;48.176;16.414;2023-02-01T01:04:58;2.25;;;1.90;;
61978;SDS011;47938;48.176;16.414;2023-02-01T01:07:24;3.08;;;2.28;;
61978;SDS011;47938;48.176;16.414;2023-02-01T01:09:49;3.30;;;2.28;;
61978;SDS011;47938;48.176;16.414;2023-02-01T01:12:15;4.03;;;2.05;;
61978;SDS011;47938;48.176;16.414;2023-02-01T01:14:40;7.32;;;2.63;;
61978;SDS011;47938;48.176;16.414;2023-02-01T01:17:06;3.22;;;1.80;;
61978;SDS011;47938;48.176;16.414;2023-02-01T01:19:32;3.33;;;2.00;;
61978;SDS011;47938;48.176;16.414;2023-02-01T01:21:57;2.78;;;1.90;;
61978;SDS011;47938;48.176;16.414;2023-02-01T01:24:23;5.00;;;2.15;;
61978;SDS011;47938;48.176;16.414;2023-02-01T01:26:48;3.13;;;1.70;;
61978;SDS011;47938;48.176;16.414;2023-02-01T01:29:14;3.28;;;1.85;;
61978;SDS011;47938;48.176;16.414;2023-02-01T01:31:40;3.17;;;1.88;;
61978;SDS011;47938;48.176;16.414;2023-02-01T01:34:05;2.53;;;1.73;;
61978;SDS011;47938;48.176;16.414;2023-02-01T01:36:31;2.92;;;1.55;;
61978;SDS011;47938;48.176;16.414;2023-02-01T01:38:56;2.13;;;1.50;;
61978;SDS011;47938;48.176;16.414;2023-02-01T01:41:24;3.20;;;1.50;;
61978;SDS011;47938;48.176;16.414;2023-02-01T01:46:23;29.90;;;3.65;;
61978;SDS011;47938;48.176;16.414;2023-02-01T01:48:53;3.00;;;1.48;;
61978;SDS011;47938;48.176;16.414;2023-02-01T01:51:42;2.00;;;1.40;;
61978;SDS011;47938;48.176;16.414;2023-02-01T01:54:58;3.10;;;1.67;;
61978;SDS011;47938;48.176;16.414;2023-02-01T01:57:20;3.15;;;1.70;;
61978;SDS011;47938;48.176;16.414;2023-02-01T01:59:56;2.35;;;1.70;;
61978;SDS011;47938;48.176;16.414;2023-02-01T02:02:30;2.97;;;1.73;;
61978;SDS011;47938;48.176;16.414;2023-02-01T02:04:56;2.50;;;1.48;;
61978;SDS011;47938;48.176;16.414;2023-02-01T02:07:32;3.15;;;2.10;;
61978;SDS011;47938;48.176;16.414;2023-02-01T02:10:02;2.65;;;2.00;;
61978;SDS011;47938;48.176;16.414;2023-02-01T02:12:29;2.55;;;2.05;;
61978;SDS011;47938;48.176;16.414;2023-02-01T02:14:54;4.72;;;2.13;;
61978;SDS011;47938;48.176;16.414;2023-02-01T02:17:26;4.35;;;2.20;;
61978;SDS011;47938;48.176;16.414;2023-02-01T02:23:21;3.88;;;1.63;;
61978;SDS011;47938;48.176;16.414;2023-02-01T02:34:38;2.92;;;1.67;;
61978;SDS011;47938;48.176;16.414;2023-02-01T02:39:53;2.25;;;1.52;;
61978;SDS011;47938;48.176;16.414;2023-02-01T02:42:36;2.35;;;1.42;;
61978;SDS011;47938;48.176;16.414;2023-02-01T02:45:17;7.60;;;3.00;;
61978;SDS011;47938;48.176;16.414;2023-02-01T02:50:29;2.28;;;1.75;;
61978;SDS011;47938;48.176;16.414;2023-02-01T02:53:02;3.47;;;1.98;;
61978;SDS011;47938;48.176;16.414;2023-02-01T02:55:35;5.03;;;1.90;;
61978;SDS011;47938;48.176;16.414;2023-02-01T02:58:04;3.40;;;1.85;;
61978;SDS011;47938;48.176;16.414;2023-02-01T03:00:32;3.35;;;1.83;;
61978;SDS011;47938;48.176;16.414;2023-02-01T03:03:00;2.80;;;1.80;;
61978;SDS011;47938;48.176;16.414;2023-02-01T03:05:31;4.10;;;1.73;;
61978;SDS011;47938;48.176;16.414;2023-02-01T03:19:08;3.22;;;1.90;;
61978;SDS011;47938;48.176;16.414;2023-02-01T03:21:57;4.60;;;1.83;;
61978;SDS011;47938;48.176;16.414;2023-02-01T03:24:31;2.88;;;1.55;;
61978;SDS011;47938;48.176;16.414;2023-02-01T03:27:02;2.42;;;1.65;;
61978;SDS011;47938;48.176;16.414;2023-02-01T03:29:38;5.43;;;1.85;;
61978;SDS011;47938;48.176;16.414;2023-02-01T03:32:09;5.05;;;1.83;;
61978;SDS011;47938;48.176;16.414;2023-02-01T03:34:35;3.10;;;1.70;;
61978;SDS011;47938;48.176;16.414;2023-02-01T03:37:02;2.97;;;1.73;;
61978;SDS011;47938;48.176;16.414;2023-02-01T03:42:22;3.22;;;1.60;;
61978;SDS011;47938;48.176;16.414;2023-02-01T03:47:26;2.70;;;1.70;;
61978;SDS011;47938;48.176;16.414;2023-02-01T03:49:59;2.45;;;1.90;;
61978;SDS011;47938;48.176;16.414;2023-02-01T03:52:39;2.83;;;2.03;;
61978;SDS011;47938;48.176;16.414;2023-02-01T03:55:08;6.53;;;2.17;;
61978;SDS011;47938;48.176;16.414;2023-02-01T03:57:39;2.53;;;1.83;;
61978;SDS011;47938;48.176;16.414;2023-02-01T04:00:14;4.13;;;2.30;;
61978;SDS011;47938;48.176;16.414;2023-02-01T04:02:43;2.72;;;1.83;;
61978;SDS011;47938;48.176;16.414;2023-02-01T04:05:09;2.95;;;2.00;;
61978;SDS011;47938;48.176;16.414;2023-02-01T04:07:34;2.67;;;1.77;;
61978;SDS011;47938;48.176;16.414;2023-02-01T04:10:00;3.33;;;2.08;;
61978;SDS011;47938;48.176;16.414;2023-02-01T04:12:26;4.65;;;2.65;;
61978;SDS011;47938;48.176;16.414;2023-02-01T04:14:51;5.13;;;2.50;;
61978;SDS011;47938;48.176;16.414;2023-02-01T04:17:17;7.25;;;2.63;;
61978;SDS011;47938;48.176;16.414;2023-02-01T04:19:42;4.90;;;2.40;;
61978;SDS011;47938;48.176;16.414;2023-02-01T04:22:08;3.72;;;2.05;;
61978;SDS011;47938;48.176;16.414;2023-02-01T04:24:34;3.00;;;2.15;;
61978;SDS011;47938;48.176;16.414;2023-02-01T04:26:59;5.15;;;2.28;;
61978;SDS011;47938;48.176;16.414;2023-02-01T04:29:25;5.60;;;2.80;;
61978;SDS011;47938;48.176;16.414;2023-02-01T04:31:51;3.35;;;2.40;;
61978;SDS011;47938;48.176;16.414;2023-02-01T04:34:17;6.53;;;2.50;;
61978;SDS011;47938;48.176;16.414;2023-02-01T04:36:42;4.00;;;2.50;;
61978;SDS011;47938;48.176;16.414;2023-02-01T04:39:08;2.88;;;2.20;;
61978;SDS011;47938;48.176;16.414;2023-02-01T04:41:34;8.85;;;2.25;;
61978;SDS011;47938;48.176;16.414;2023-02-01T04:44:00;5.22;;;2.90;;
61978;SDS011;47938;48.176;16.414;2023-02-01T04:46:26;6.30;;;2.75;;
61978;SDS011;47938;48.176;16.414;2023-02-01T04:48:51;5.35;;;2.70;;
61978;SDS011;47938;48.176;16.414;2023-02-01T04:51:17;6.18;;;2.67;;
61978;SDS011;47938;48.176;16.414;2023-02-01T04:53:42;3.88;;;2.78;;
61978;SDS011;47938;48.176;16.414;2023-02-01T04:56:08;5.55;;;2.88;;
61978;SDS011;47938;48.176;16.414;2023-02-01T04:58:34;4.60;;;3.30;;
61978;SDS011;47938;48.176;16.414;2023-02-01T05:01:02;6.00;;;2.70;;
61978;SDS011;47938;48.176;16.414;2023-02-01T05:03:28;5.88;;;2.72;;
61978;SDS011;47938;48.176;16.414;2023-02-01T05:05:54;3.80;;;2.75;;
61978;SDS011;47938;48.176;16.414;2023-02-01T05:08:19;4.70;;;2.47;;
61978;SDS011;47938;48.176;16.414;2023-02-01T05:10:45;4.05;;;2.55;;
61978;SDS011;47938;48.176;16.414;2023-02-01T05:13:11;3.67;;;2.63;;
61978;SDS011;47938;48.176;16.414;2023-02-01T05:15:36;4.10;;;2.60;;
61978;SDS011;47938;48.176;16.414;2023-02-01T05:18:02;3.80;;;2.72;;
61978;SDS011;47938;48.176;16.414;2023-02-01T05:20:27;5.10;;;2.38;;
61978;SDS011;47938;48.176;16.414;2023-02-01T05:22:53;3.15;;;2.35;;
61978;SDS011;47938;48.176;16.414;2023-02-01T05:25:19;4.88;;;2.63;;
61978;SDS011;47938;48.176;16.414;2023-02-01T05:27:44;4.60;;;2.90;;
61978;SDS011;47938;48.176;16.414;2023-02-01T05:30:10;4.03;;;2.58;;
61978;SDS011;47938;48.176;16.414;2023-02-01T05:32:36;4.70;;;2.72;;
61978;SDS011;47938;48.176;16.414;2023-02-01T05:35:02;4.20;;;3.03;;
61978;SDS011;47938;48.176;16.414;2023-02-01T05:37:28;7.90;;;3.13;;
61978;SDS011;47938;48.176;16.414;2023-02-01T05:39:53;4.45;;;2.65;;
61978;SDS011;47938;48.176;16.414;2023-02-01T05:42:19;4.35;;;3.10;;
61978;SDS011;47938;48.176;16.414;2023-02-01T05:44:45;6.45;;;3.60;;
61978;SDS011;47938;48.176;16.414;2023-02-01T05:47:10;5.35;;;2.70;;
61978;SDS011;47938;48.176;16.414;2023-02-01T05:49:36;5.00;;;3.17;;
61978;SDS011;47938;48.176;16.414;2023-02-01T05:52:01;5.53;;;3.30;;
61978;SDS011;47938;48.176;16.414;2023-02-01T05:54:27;4.88;;;3.15;;
61978;SDS011;47938;48.176;16.414;2023-02-01T05:56:53;4.03;;;2.95;;
61978;SDS011;47938;48.176;16.414;2023-02-01T05:59:19;3.58;;;2.40;;
61978;SDS011;47938;48.176;16.414;2023-02-01T06:01:44;6.82;;;2.80;;
61978;SDS011;47938;48.176;16.414;2023-02-01T06:04:10;5.38;;;2.83;;
61978;SDS011;47938;48.176;16.414;2023-02-01T06:06:35;4.80;;;2.60;;
61978;SDS011;47938;48.176;16.414;2023-02-01T06:09:01;3.60;;;2.50;;
61978;SDS011;47938;48.176;16.414;2023-02-01T06:11:27;4.95;;;3.25;;
61978;SDS011;47938;48.176;16.414;2023-02-01T06:13:53;4.07;;;2.67;;
61978;SDS011;47938;48.176;16.414;2023-02-01T06:16:19;8.18;;;3.28;;
61978;SDS011;47938;48.176;16.414;2023-02-01T06:18:44;3.60;;;2.42;;
61978;SDS011;47938;48.176;16.414;2023-02-01T06:21:10;5.38;;;3.00;;
61978;SDS011;47938;48.176;16.414;2023-02-01T06:23:35;7.28;;;3.13;;
61978;SDS011;47938;48.176;16.414;2023-02-01T06:26:02;3.70;;;2.60;;
61978;SDS011;47938;48.176;16.414;2023-02-01T06:28:30;4.00;;;2.70;;
61978;SDS011;47938;48.176;16.414;2023-02-01T06:30:57;6.05;;;3.28;;
61978;SDS011;47938;48.176;16.414;2023-02-01T06:33:23;3.85;;;2.83;;
61978;SDS011;47938;48.176;16.414;2023-02-01T06:35:56;5.45;;;3.13;;
61978;SDS011;47938;48.176;16.414;2023-02-01T06:38:22;5.40;;;3.28;;
61978;SDS011;47938;48.176;16.414;2023-02-01T06:40:51;4.38;;;3.10;;
61978;SDS011;47938;48.176;16.414;2023-02-01T06:43:25;4.15;;;3.00;;
61978;SDS011;47938;48.176;16.414;2023-02-01T06:45:51;4.57;;;2.83;;
61978;SDS011;47938;48.176;16.414;2023-02-01T06:48:18;6.80;;;3.28;;
61978;SDS011;47938;48.176;16.414;2023-02-01T06:50:44;4.97;;;2.75;;
61978;SDS011;47938;48.176;16.414;2023-02-01T06:53:10;3.50;;;2.70;;
61978;SDS011;47938;48.176;16.414;2023-02-01T06:55:35;4.38;;;2.60;;
61978;SDS011;47938;48.176;16.414;2023-02-01T06:58:01;5.00;;;2.85;;
61978;SDS011;47938;48.176;16.414;2023-02-01T07:00:27;4.45;;;3.00;;
61978;SDS011;47938;48.176;16.414;2023-02-01T07:02:53;3.85;;;2.60;;
61978;SDS011;47938;48.176;16.414;2023-02-01T07:05:19;6.78;;;2.95;;
61978;SDS011;47938;48.176;16.414;2023-02-01T07:07:45;4.10;;;2.80;;
61978;SDS011;47938;48.176;16.414;2023-02-01T07:10:10;3.67;;;2.78;;
61978;SDS011;47938;48.176;16.414;2023-02-01T07:12:36;5.90;;;3.10;;
61978;SDS011;47938;48.176;16.414;2023-02-01T07:15:02;6.05;;;2.85;;
61978;SDS011;47938;48.176;16.414;2023-02-01T07:17:28;3.15;;;2.53;;
61978;SDS011;47938;48.176;16.414;2023-02-01T07:19:54;4.60;;;2.47;;
61978;SDS011;47938;48.176;16.414;2023-02-01T07:22:20;4.70;;;2.33;;
61978;SDS011;47938;48.176;16.414;2023-02-01T07:24:46;3.03;;;2.30;;
61978;SDS011;47938;48.176;16.414;2023-02-01T07:27:12;3.33;;;2.30;;
61978;SDS011;47938;48.176;16.414;2023-02-01T07:29:37;3.75;;;2.40;;
61978;SDS011;47938;48.176;16.414;2023-02-01T07:32:03;4.25;;;2.33;;
61978;SDS011;47938;48.176;16.414;2023-02-01T07:34:29;3.63;;;2.35;;
61978;SDS011;47938;48.176;16.414;2023-02-01T07:36:54;3.83;;;2.20;;
61978;SDS011;47938;48.176;16.414;2023-02-01T07:39:20;5.78;;;2.42;;
61978;SDS011;47938;48.176;16.414;2023-02-01T07:41:46;3.78;;;2.05;;
61978;SDS011;47938;48.176;16.414;2023-02-01T07:44:11;3.95;;;2.50;;
61978;SDS011;47938;48.176;16.414;2023-02-01T07:46:37;5.05;;;2.63;;
61978;SDS011;47938;48.176;16.414;2023-02-01T07:49:03;5.35;;;2.30;;
61978;SDS011;47938;48.176;16.414;2023-02-01T07:51:28;3.90;;;2.38;;
61978;SDS011;47938;48.176;16.414;2023-02-01T07:53:54;3.75;;;2.60;;
61978;SDS011;47938;48.176;16.414;2023-02-01T07:56:20;4.65;;;2.33;;
61978;SDS011;47938;48.176;16.414;2023-02-01T07:58:49;6.43;;;2.80;;
61978;SDS011;47938;48.176;16.414;2023-02-01T08:01:17;3.58;;;2.40;;
61978;SDS011;47938;48.176;16.414;2023-02-01T08:03:45;3.95;;;2.20;;
61978;SDS011;47938;48.176;16.414;2023-02-01T08:06:11;5.72;;;2.70;;
61978;SDS011;47938;48.176;16.414;2023-02-01T08:08:37;4.97;;;2.50;;
61978;SDS011;47938;48.176;16.414;2023-02-01T08:11:03;4.13;;;2.45;;
61978;SDS011;47938;48.176;16.414;2023-02-01T08:13:30;4.60;;;2.95;;
61978;SDS011;47938;48.176;16.414;2023-02-01T08:16:01;4.15;;;2.92;;
61978;SDS011;47938;48.176;16.414;2023-02-01T08:18:29;5.20;;;3.00;;
61978;SDS011;47938;48.176;16.414;2023-02-01T08:20:55;4.50;;;2.83;;
61978;SDS011;47938;48.176;16.414;2023-02-01T08:23:21;3.75;;;2.50;;
61978;SDS011;47938;48.176;16.414;2023-02-01T08:25:47;6.00;;;3.10;;
61978;SDS011;47938;48.176;16.414;2023-02-01T08:28:13;8.60;;;3.35;;
61978;SDS011;47938;48.176;16.414;2023-02-01T08:30:39;3.70;;;2.65;;
61978;SDS011;47938;48.176;16.414;2023-02-01T08:33:05;4.15;;;2.47;;
61978;SDS011;47938;48.176;16.414;2023-02-01T08:35:31;4.30;;;2.60;;
61978;SDS011;47938;48.176;16.414;2023-02-01T08:37:57;4.43;;;2.83;;
61978;SDS011;47938;48.176;16.414;2023-02-01T08:40:23;6.43;;;2.80;;
61978;SDS011;47938;48.176;16.414;2023-02-01T08:42:48;6.85;;;2.72;;
61978;SDS011;47938;48.176;16.414;2023-02-01T08:45:14;3.92;;;2.55;;
61978;SDS011;47938;48.176;16.414;2023-02-01T08:47:40;4.95;;;2.80;;
61978;SDS011;47938;48.176;16.414;2023-02-01T08:50:05;3.15;;;2.20;;
61978;SDS011;47938;48.176;16.414;2023-02-01T08:52:31;5.13;;;2.53;;
61978;SDS011;47938;48.176;16.414;2023-02-01T08:54:57;4.78;;;2.33;;
61978;SDS011;47938;48.176;16.414;2023-02-01T08:57:23;4.53;;;2.40;;
61978;SDS011;47938;48.176;16.414;2023-02-01T08:59:48;7.68;;;3.20;;
61978;SDS011;47938;48.176;16.414;2023-02-01T09:02:14;3.40;;;2.53;;
61978;SDS011;47938;48.176;16.414;2023-02-01T09:04:41;4.30;;;2.60;;
61978;SDS011;47938;48.176;16.414;2023-02-01T09:07:07;3.40;;;2.20;;
61978;SDS011;47938;48.176;16.414;2023-02-01T09:09:33;3.95;;;2.22;;
61978;SDS011;47938;48.176;16.414;2023-02-01T09:11:59;3.78;;;2.30;;
61978;SDS011;47938;48.176;16.414;2023-02-01T09:14:25;6.45;;;2.65;;
61978;SDS011;47938;48.176;16.414;2023-02-01T09:16:50;5.30;;;2.70;;
61978;SDS011;47938;48.176;16.414;2023-02-01T09:19:16;7.10;;;2.67;;
61978;SDS011;47938;48.176;16.414;2023-02-01T09:21:42;5.28;;;2.55;;
61978;SDS011;47938;48.176;16.414;2023-02-01T09:24:09;5.18;;;2.80;;
61978;SDS011;47938;48.176;16.414;2023-02-01T09:26:35;3.75;;;2.67;;
61978;SDS011;47938;48.176;16.414;2023-02-01T09:29:01;6.15;;;2.55;;
61978;SDS011;47938;48.176;16.414;2023-02-01T09:31:28;4.47;;;2.55;;
61978;SDS011;47938;48.176;16.414;2023-02-01T09:33:54;4.72;;;2.53;;
61978;SDS011;47938;48.176;16.414;2023-02-01T09:36:20;4.97;;;3.00;;
61978;SDS011;47938;48.176;16.414;2023-02-01T09:38:46;4.18;;;2.60;;
61978;SDS011;47938;48.176;16.414;2023-02-01T09:47:23;3.40;;;2.50;;
61978;SDS011;47938;48.176;16.414;2023-02-01T09:49:52;5.53;;;2.20;;
61978;SDS011;47938;48.176;16.414;2023-02-01T09:52:21;3.03;;;2.10;;
61978;SDS011;47938;48.176;16.414;2023-02-01T09:55:39;2.80;;;1.80;;
61978;SDS011;47938;48.176;16.414;2023-02-01T09:58:12;3.33;;;1.95;;
61978;SDS011;47938;48.176;16.414;2023-02-01T10:00:58;3.05;;;1.70;;
61978;SDS011;47938;48.176;16.414;2023-02-01T10:03:26;3.40;;;2.13;;
61978;SDS011;47938;48.176;16.414;2023-02-01T10:05:58;3.15;;;1.95;;
61978;SDS011;47938;48.176;16.414;2023-02-01T10:11:27;3.95;;;2.08;;
61978;SDS011;47938;48.176;16.414;2023-02-01T10:25:17;4.18;;;1.70;;
61978;SDS011;47938;48.176;16.414;2023-02-01T10:27:56;3.67;;;1.90;;
61978;SDS011;47938;48.176;16.414;2023-02-01T10:30:25;3.45;;;1.80;;
61978;SDS011;47938;48.176;16.414;2023-02-01T10:32:56;4.35;;;1.80;;
61978;SDS011;47938;48.176;16.414;2023-02-01T10:35:33;3.25;;;1.75;;
61978;SDS011;47938;48.176;16.414;2023-02-01T10:38:01;3.22;;;2.30;;
61978;SDS011;47938;48.176;16.414;2023-02-01T10:40:27;3.70;;;2.17;;
61978;SDS011;47938;48.176;16.414;2023-02-01T10:42:57;3.05;;;1.75;;
61978;SDS011;47938;48.176;16.414;2023-02-01T10:45:26;8.75;;;4.97;;
61978;SDS011;47938;48.176;16.414;2023-02-01T10:47:54;4.38;;;2.85;;
61978;SDS011;47938;48.176;16.414;2023-02-01T10:52:58;2.25;;;1.50;;
61978;SDS011;47938;48.176;16.414;2023-02-01T10:55:37;2.92;;;1.83;;
61978;SDS011;47938;48.176;16.414;2023-02-01T11:01:06;3.75;;;1.73;;
61978;SDS011;47938;48.176;16.414;2023-02-01T11:03:40;3.90;;;2.00;;
61978;SDS011;47938;48.176;16.414;2023-02-01T11:08:51;3.22;;;1.90;;
61978;SDS011;47938;48.176;16.414;2023-02-01T11:11:19;7.00;;;1.90;;
61978;SDS011;47938;48.176;16.414;2023-02-01T11:13:45;5.20;;;2.05;;
61978;SDS011;47938;48.176;16.414;2023-02-01T11:16:36;3.60;;;2.03;;
61978;SDS011;47938;48.176;16.414;2023-02-01T11:19:04;5.15;;;2.40;;
61978;SDS011;47938;48.176;16.414;2023-02-01T11:21:31;3.35;;;2.10;;
61978;SDS011;47938;48.176;16.414;2023-02-01T11:24:04;4.00;;;1.77;;
61978;SDS011;47938;48.176;16.414;2023-02-01T11:26:30;3.15;;;1.90;;
61978;SDS011;47938;48.176;16.414;2023-02-01T11:28:58;4.00;;;2.45;;
61978;SDS011;47938;48.176;16.414;2023-02-01T11:31:25;6.75;;;3.53;;
61978;SDS011;47938;48.176;16.414;2023-02-01T11:33:53;3.33;;;2.00;;
61978;SDS011;47938;48.176;16.414;2023-02-01T11:36:26;5.18;;;2.95;;
61978;SDS011;47938;48.176;16.414;2023-02-01T11:39:40;9.68;;;2.90;;
61978;SDS011;47938;48.176;16.414;2023-02-01T11:41:55;4.63;;;2.45;;
61978;SDS011;47938;48.176;16.414;2023-02-01T11:44:32;3.92;;;1.90;;
61978;SDS011;47938;48.176;16.414;2023-02-01T11:47:18;4.57;;;2.42;;
61978;SDS011;47938;48.176;16.414;2023-02-01T11:49:44;4.60;;;2.63;;
61978;SDS011;47938;48.176;16.414;2023-02-01T12:00:32;3.78;;;2.40;;
61978;SDS011;47938;48.176;16.414;2023-02-01T12:09:37;5.32;;;2.38;;
61978;SDS011;47938;48.176;16.414;2023-02-01T12:11:59;5.28;;;2.30;;
61978;SDS011;47938;48.176;16.414;2023-02-01T12:18:02;6.13;;;2.67;;
61978;SDS011;47938;48.176;16.414;2023-02-01T12:36:18;3.63;;;2.03;;
61978;SDS011;47938;48.176;16.414;2023-02-01T12:38:52;5.43;;;2.35;;
61978;SDS011;47938;48.176;16.414;2023-02-01T12:47:41;4.72;;;2.63;;
61978;SDS011;47938;48.176;16.414;2023-02-01T12:50:02;3.15;;;2.10;;
61978;SDS011;47938;48.176;16.414;2023-02-01T12:52:39;4.05;;;1.67;;
61978;SDS011;47938;48.176;16.414;2023-02-01T12:57:50;3.22;;;1.70;;
61978;SDS011;47938;48.176;16.414;2023-02-01T13:00:41;3.58;;;1.80;;
61978;SDS011;47938;48.176;16.414;2023-02-01T13:03:26;3.22;;;2.15;;
61978;SDS011;47938;48.176;16.414;2023-02-01T13:06:04;4.40;;;1.83;;
61978;SDS011;47938;48.176;16.414;2023-02-01T13:11:33;3.45;;;1.13;;
61978;SDS011;47938;48.176;16.414;2023-02-01T13:14:10;2.50;;;1.30;;
61978;SDS011;47938;48.176;16.414;2023-02-01T13:16:38;5.28;;;1.80;;
61978;SDS011;47938;48.176;16.414;2023-02-01T13:21:39;4.80;;;1.50;;
61978;SDS011;47938;48.176;16.414;2023-02-01T13:24:16;3.33;;;1.52;;
61978;SDS011;47938;48.176;16.414;2023-02-01T13:26:54;2.40;;;1.30;;
61978;SDS011;47938;48.176;16.414;2023-02-01T13:29:20;1.90;;;1.05;;
61978;SDS011;47938;48.176;16.414;2023-02-01T13:31:52;3.85;;;1.50;;
61978;SDS011;47938;48.176;16.414;2023-02-01T13:44:58;4.93;;;1.50;;
61978;SDS011;47938;48.176;16.414;2023-02-01T13:49:58;1.80;;;1.05;;
61978;SDS011;47938;48.176;16.414;2023-02-01T13:52:42;2.58;;;1.25;;
61978;SDS011;47938;48.176;16.414;2023-02-01T13:57:45;6.72;;;1.80;;
61978;SDS011;47938;48.176;16.414;2023-02-01T14:00:25;6.10;;;2.05;;
61978;SDS011;47938;48.176;16.414;2023-02-01T14:11:06;2.55;;;1.40;;
61978;SDS011;47938;48.176;16.414;2023-02-01T14:13:26;4.00;;;1.70;;
61978;SDS011;47938;48.176;16.414;2023-02-01T14:23:41;5.30;;;1.50;;
61978;SDS011;47938;48.176;16.414;2023-02-01T14:26:09;4.63;;;2.50;;
61978;SDS011;47938;48.176;16.414;2023-02-01T14:28:45;6.57;;;1.55;;
61978;SDS011;47938;48.176;16.414;2023-02-01T14:31:33;5.07;;;1.75;;
61978;SDS011;47938;48.176;16.414;2023-02-01T14:34:21;3.17;;;1.55;;
61978;SDS011;47938;48.176;16.414;2023-02-01T14:36:59;3.67;;;1.48;;
61978;SDS011;47938;48.176;16.414;2023-02-01T14:39:32;1.77;;;1.00;;
61978;SDS011;47938;48.176;16.414;2023-02-01T14:42:03;3.17;;;1.25;;
61978;SDS011;47938;48.176;16.414;2023-02-01T14:44:32;3.88;;;0.80;;
61978;SDS011;47938;48.176;16.414;2023-02-01T14:49:33;3.08;;;1.08;;
61978;SDS011;47938;48.176;16.414;2023-02-01T14:52:14;2.95;;;1.00;;
61978;SDS011;47938;48.176;16.414;2023-02-01T14:54:42;1.63;;;1.00;;
61978;SDS011;47938;48.176;16.414;2023-02-01T14:57:15;2.38;;;1.20;;
61978;SDS011;47938;48.176;16.414;2023-02-01T14:59:45;1.92;;;1.10;;
61978;SDS011;47938;48.176;16.414;2023-02-01T15:02:21;2.38;;;0.90;;
61978;SDS011;47938;48.176;16.414;2023-02-01T15:04:56;2.05;;;0.80;;
61978;SDS011;47938;48.176;16.414;2023-02-01T15:07:23;1.73;;;0.88;;
61978;SDS011;47938;48.176;16.414;2023-02-01T15:09:51;2.30;;;1.10;;
61978;SDS011;47938;48.176;16.414;2023-02-01T15:12:29;4.50;;;1.25;;
61978;SDS011;47938;48.176;16.414;2023-02-01T15:15:14;2.72;;;1.55;;
61978;SDS011;47938;48.176;16.414;2023-02-01T15:17:41;2.95;;;1.60;;
61978;SDS011;47938;48.176;16.414;2023-02-01T15:20:16;2.42;;;1.25;;
61978;SDS011;47938;48.176;16.414;2023-02-01T15:23:02;3.70;;;1.77;;
61978;SDS011;47938;48.176;16.414;2023-02-01T15:25:31;2.58;;;1.40;;
61978;SDS011;47938;48.176;16.414;2023-02-01T15:27:58;5.47;;;1.60;;
61978;SDS011;47938;48.176;16.414;2023-02-01T15:30:28;3.60;;;1.80;;
61978;SDS011;47938;48.176;16.414;2023-02-01T15:33:17;3.97;;;2.03;;
61978;SDS011;47938;48.176;16.414;2023-02-01T15:35:46;4.68;;;2.33;;
61978;SDS011;47938;48.176;16.414;2023-02-01T15:43:45;7.70;;;2.33;;
61978;SDS011;47938;48.176;16.414;2023-02-01T15:46:22;4.13;;;2.38;;
61978;SDS011;47938;48.176;16.414;2023-02-01T15:48:55;5.78;;;2.00;;
61978;SDS011;47938;48.176;16.414;2023-02-01T15:51:22;3.08;;;1.75;;
61978;SDS011;47938;48.176;16.414;2023-02-01T15:53:57;4.70;;;2.13;;
61978;SDS011;47938;48.176;16.414;2023-02-01T15:56:38;6.03;;;1.77;;
61978;SDS011;47938;48.176;16.414;2023-02-01T15:59:06;5.82;;;1.30;;
61978;SDS011;47938;48.176;16.414;2023-02-01T16:01:40;3.72;;;1.80;;
61978;SDS011;47938;48.176;16.414;2023-02-01T16:04:13;6.07;;;1.75;;
61978;SDS011;47938;48.176;16.414;2023-02-01T16:09:25;8.57;;;2.55;;
61978;SDS011;47938;48.176;16.414;2023-02-01T16:12:02;6.00;;;1.83;;
61978;SDS011;47938;48.176;16.414;2023-02-01T16:14:28;8.35;;;2.03;;
61978;SDS011;47938;48.176;16.414;2023-02-01T16:16:55;3.95;;;1.58;;
61978;SDS011;47938;48.176;16.414;2023-02-01T16:19:23;10.23;;;2.10;;
61978;SDS011;47938;48.176;16.414;2023-02-01T16:21:49;6.60;;;1.88;;
61978;SDS011;47938;48.176;16.414;2023-02-01T16:24:14;4.50;;;2.00;;
61978;SDS011;47938;48.176;16.414;2023-02-01T16:26:40;3.78;;;1.80;;
61978;SDS011;47938;48.176;16.414;2023-02-01T16:29:06;4.68;;;1.75;;
61978;SDS011;47938;48.176;16.414;2023-02-01T16:31:35;5.22;;;2.22;;
61978;SDS011;47938;48.176;16.414;2023-02-01T16:34:02;4.28;;;2.10;;
61978;SDS011;47938;48.176;16.414;2023-02-01T16:36:29;6.85;;;1.80;;
61978;SDS011;47938;48.176;16.414;2023-02-01T16:38:54;6.55;;;2.17;;
61978;SDS011;47938;48.176;16.414;2023-02-01T16:41:21;9.65;;;2.60;;
61978;SDS011;47938;48.176;16.414;2023-02-01T16:43:51;6.15;;;2.38;;
61978;SDS011;47938;48.176;16.414;2023-02-01T16:46:20;7.60;;;2.67;;
61978;SDS011;47938;48.176;16.414;2023-02-01T16:48:54;8.60;;;3.70;;
61978;SDS011;47938;48.176;16.414;2023-02-01T16:51:23;8.35;;;2.90;;
61978;SDS011;47938;48.176;16.414;2023-02-01T16:53:51;11.90;;;3.20;;
61978;SDS011;47938;48.176;16.414;2023-02-01T16:56:18;5.97;;;2.75;;
61978;SDS011;47938;48.176;16.414;2023-02-01T16:58:46;6.60;;;2.20;;
61978;SDS011;47938;48.176;16.414;2023-02-01T17:01:12;10.73;;;2.67;;
61978;SDS011;47938;48.176;16.414;2023-02-01T17:03:40;5.57;;;2.53;;
61978;SDS011;47938;48.176;16.414;2023-02-01T17:06:06;12.35;;;2.80;;
61978;SDS011;47938;48.176;16.414;2023-02-01T17:08:36;8.93;;;2.72;;
61978;SDS011;47938;48.176;16.414;2023-02-01T17:11:05;11.45;;;3.08;;
61978;SDS011;47938;48.176;16.414;2023-02-01T17:13:32;5.53;;;2.75;;
61978;SDS011;47938;48.176;16.414;2023-02-01T17:16:00;6.70;;;2.53;;
61978;SDS011;47938;48.176;16.414;2023-02-01T17:18:46;6.55;;;2.88;;
61978;SDS011;47938;48.176;16.414;2023-02-01T17:21:25;8.90;;;2.85;;